createdAt,value
2023-08-08T00:04:56.084Z,11.4
2023-08-08T00:10:45.867Z,11.2
2023-08-08T00:15:56.096Z,11.2
2023-08-08T00:20:56.085Z,11.2
2023-08-08T00:26:45.606Z,11.2
2023-08-08T00:31:45.845Z,11.3
2023-08-08T00:36:55.866Z,11.3
2023-08-08T00:41:56.654Z,11.2
2023-08-08T00:47:46.208Z,11.1
2023-08-08T00:52:56.092Z,11.2
2023-08-08T00:58:45.577Z,11.2
2023-08-08T01:03:45.803Z,11
2023-08-08T01:08:45.892Z,11
2023-08-08T01:13:56.079Z,10.9
2023-08-08T01:19:45.656Z,10.9
2023-08-08T01:24:45.834Z,10.8
2023-08-08T01:29:45.845Z,10.8
2023-08-08T01:34:45.824Z,10.9
2023-08-08T01:44:56.107Z,11
2023-08-08T01:50:45.811Z,11
2023-08-08T01:55:56.117Z,11
2023-08-08T02:01:45.867Z,11.1
2023-08-08T02:06:45.819Z,11
2023-08-08T02:11:45.850Z,11.1
2023-08-08T02:16:55.957Z,11.1
2023-08-08T02:21:56.088Z,11.2
2023-08-08T02:27:45.836Z,11.1
2023-08-08T02:32:56.113Z,11.1
2023-08-08T02:37:57.528Z,11.1
2023-08-08T02:43:45.829Z,11
2023-08-08T02:48:45.817Z,10.9
2023-08-08T02:53:45.835Z,10.8
2023-08-08T02:58:45.845Z,10.7
2023-08-08T03:03:56.148Z,10.4
2023-08-08T03:08:56.116Z,10.5
2023-08-08T03:13:56.099Z,10.5
2023-08-08T03:19:45.674Z,10.3
2023-08-08T03:24:56.216Z,10.3
2023-08-08T03:30:45.649Z,10.2
2023-08-08T03:35:45.666Z,10.2
2023-08-08T03:40:55.912Z,10.2
2023-08-08T03:45:55.956Z,10
2023-08-08T03:51:45.641Z,10.2
2023-08-08T03:56:45.617Z,10.2
2023-08-08T04:01:45.639Z,10.1
2023-08-08T04:06:55.873Z,10.2
2023-08-08T04:11:55.888Z,10.2
2023-08-08T04:16:55.917Z,10
2023-08-08T04:21:55.886Z,10.1
2023-08-08T04:27:45.742Z,10.1
2023-08-08T04:32:45.725Z,10.3
2023-08-08T04:37:45.806Z,10.4
2023-08-08T04:42:45.813Z,10.5
2023-08-08T04:47:56.166Z,10.7
2023-08-08T04:53:45.661Z,10.8
2023-08-08T04:58:56.115Z,10.8
2023-08-08T05:04:45.664Z,10.8
2023-08-08T05:09:45.835Z,10.8
2023-08-08T05:14:56.263Z,11
2023-08-08T05:20:45.850Z,11
2023-08-08T05:25:56.089Z,11
2023-08-08T05:30:56.150Z,10.8
2023-08-08T05:35:56.130Z,11.1
2023-08-08T05:41:45.851Z,11
2023-08-08T05:46:56.127Z,11
2023-08-08T05:51:56.284Z,10.9
2023-08-08T05:56:56.200Z,10.7
2023-08-08T06:02:45.924Z,10.8
2023-08-08T06:07:56.272Z,10.9
2023-08-08T06:13:45.813Z,11
2023-08-08T06:18:45.848Z,11
2023-08-08T06:23:56.050Z,11.1
2023-08-08T06:28:56.068Z,11.2
2023-08-08T06:39:46.026Z,11.3
2023-08-08T06:55:45.919Z,11.6
2023-08-08T07:00:56.175Z,11.7
2023-08-08T07:06:45.858Z,11.9
2023-08-08T07:11:45.931Z,12
2023-08-08T07:16:45.984Z,11.9
2023-08-08T07:21:56.132Z,12.2
2023-08-08T07:27:45.857Z,12.1
2023-08-08T07:32:45.919Z,12.3
2023-08-08T07:37:56.085Z,12.4
2023-08-08T07:43:45.850Z,12.4
2023-08-08T07:48:56.151Z,12.3
2023-08-08T07:54:45.861Z,12.5
2023-08-08T07:59:56.133Z,12.8
2023-08-08T08:04:56.165Z,12.5
2023-08-08T08:20:45.922Z,12.9
2023-08-08T08:25:56.134Z,12.7
2023-08-08T08:30:56.174Z,12.9
2023-08-08T08:35:56.159Z,12.9
2023-08-08T08:40:56.156Z,12.7
2023-08-08T08:46:45.964Z,12.9
2023-08-08T08:51:56.269Z,12.7
2023-08-08T08:57:45.624Z,12.5
2023-08-08T09:02:45.934Z,12.6
2023-08-08T09:07:56.191Z,12.1
2023-08-08T09:12:56.250Z,12
2023-08-08T09:18:45.631Z,12.1
2023-08-08T09:23:46.548Z,12.2
2023-08-08T09:28:45.996Z,12.4
2023-08-08T09:33:55.920Z,12.3
2023-08-08T09:38:55.936Z,12.2
2023-08-08T09:44:45.658Z,12
2023-08-08T09:49:45.691Z,12.2
2023-08-08T09:54:45.924Z,12.4
2023-08-08T09:59:56.025Z,12.3
2023-08-08T10:05:45.704Z,12.1
2023-08-08T10:10:45.837Z,11.8
2023-08-08T10:15:56.045Z,11.9
2023-08-08T10:21:45.680Z,11.2
2023-08-08T10:26:55.985Z,11.4
2023-08-08T10:31:56.293Z,10.9
2023-08-08T10:37:45.754Z,11.4
2023-08-08T10:42:56.070Z,10.8
2023-08-08T10:48:45.853Z,11.3
2023-08-08T10:53:56.036Z,11
2023-08-08T10:58:56.204Z,11.1
2023-08-08T11:04:45.894Z,11.7
2023-08-08T11:09:45.872Z,11.8
2023-08-08T11:14:45.920Z,11.5
2023-08-08T11:19:56.276Z,11.4
2023-08-08T11:24:57.500Z,11.3
2023-08-08T11:30:46.039Z,11.2
2023-08-08T11:35:45.921Z,11.2
2023-08-08T11:40:56.194Z,11
2023-08-08T11:46:46.174Z,11
2023-08-08T11:51:56.026Z,11.1
2023-08-08T11:56:56.183Z,11.1
2023-08-08T12:01:56.193Z,11.1
2023-08-08T12:07:45.712Z,11.1
2023-08-08T12:12:45.946Z,11
2023-08-08T12:17:56.304Z,11.1
2023-08-08T12:22:56.285Z,10.4
2023-08-08T12:28:45.976Z,10.3
2023-08-08T12:33:56.206Z,10.8
2023-08-08T12:38:56.208Z,10.9
2023-08-08T12:44:46.018Z,10.5
2023-08-08T12:49:56.181Z,10.7
2023-08-08T12:54:56.211Z,10.8
2023-08-08T13:00:46.002Z,10.4
2023-08-08T13:05:56.213Z,10.7
2023-08-08T13:11:46.055Z,10.3
2023-08-08T13:16:56.203Z,10.6
2023-08-08T13:21:56.233Z,11
2023-08-08T13:26:56.237Z,10.9
2023-08-08T13:32:45.692Z,10.8
2023-08-08T13:37:45.777Z,10.4
2023-08-08T13:42:45.925Z,10.5
2023-08-08T13:47:56.007Z,11.6
2023-08-08T13:52:56.244Z,11.5
2023-08-08T13:57:56.312Z,11.9
2023-08-08T14:03:46.066Z,12.4
2023-08-08T14:08:45.966Z,12.4
2023-08-08T14:13:56.233Z,12.6
2023-08-08T14:19:45.822Z,12.2
2023-08-08T14:24:45.935Z,12
2023-08-08T14:35:45.754Z,11
2023-08-08T14:40:46.006Z,11
2023-08-08T14:45:56.102Z,11.2
2023-08-08T14:50:56.219Z,11.4
2023-08-08T14:56:45.953Z,11.4
2023-08-08T15:01:46.031Z,11.2
2023-08-08T15:06:46.118Z,11.6
2023-08-08T15:11:56.255Z,11.5
2023-08-08T15:17:46.150Z,11.1
2023-08-08T15:22:46.141Z,11.3
2023-08-08T15:27:56.232Z,11.1
2023-08-08T15:32:56.287Z,11.4
2023-08-08T15:37:56.415Z,11.4
2023-08-08T15:43:45.894Z,11.7
2023-08-08T15:48:45.933Z,11.8
2023-08-08T15:53:56.403Z,11.9
2023-08-08T15:59:45.781Z,12
2023-08-08T16:04:56.024Z,11.9
2023-08-08T16:09:56.045Z,12
2023-08-08T16:20:45.776Z,12.3
2023-08-08T16:25:45.812Z,12.1
2023-08-08T16:30:45.898Z,12.1
2023-08-08T16:35:56.107Z,12.2
2023-08-08T16:41:45.785Z,12.1
2023-08-08T16:46:45.903Z,12.3
2023-08-08T16:51:46.028Z,12.2
2023-08-08T16:56:56.077Z,11.9
2023-08-08T17:07:46.065Z,11.8
2023-08-08T17:12:56.219Z,11.9
2023-08-08T17:23:46.014Z,12
2023-08-08T17:28:56.281Z,12
2023-08-08T17:33:56.276Z,12.1
2023-08-08T17:39:46.173Z,12
2023-08-08T17:44:56.246Z,12.2
2023-08-08T17:49:56.287Z,12.2
2023-08-08T17:55:45.821Z,12
2023-08-08T18:00:46.022Z,12
2023-08-08T18:05:56.266Z,12.6
2023-08-08T18:10:56.292Z,12.4
2023-08-08T18:16:46.017Z,12.3
2023-08-08T18:21:56.336Z,12.4
2023-08-08T18:27:45.839Z,12.2
2023-08-08T18:32:46.113Z,12.2
2023-08-08T18:37:56.295Z,12.4
2023-08-08T18:43:45.961Z,12.1
2023-08-08T18:48:46.096Z,12.3
2023-08-08T18:53:56.284Z,12.3
2023-08-08T18:58:56.425Z,12.2
2023-08-08T19:04:46.075Z,12.2
2023-08-08T19:09:56.122Z,12.3
2023-08-08T19:14:56.132Z,12.2
2023-08-08T19:20:46.022Z,12.2
2023-08-08T19:25:46.069Z,12.3
2023-08-08T19:30:56.313Z,12.3
2023-08-08T19:36:46.045Z,12.4
2023-08-08T19:41:56.733Z,12.2
2023-08-08T19:47:45.829Z,12.3
2023-08-08T19:52:46.031Z,12.2
2023-08-08T19:57:56.275Z,12.1
2023-08-08T20:03:45.948Z,12.3
2023-08-08T20:08:46.036Z,12.2
2023-08-08T20:13:56.312Z,12.1
2023-08-08T20:19:46.019Z,12.2
2023-08-08T20:24:56.170Z,12.2
2023-08-08T20:29:56.175Z,12.2
2023-08-08T20:34:56.320Z,12.2
2023-08-08T20:40:46.056Z,12.4
2023-08-08T20:45:56.282Z,12.6
2023-08-08T20:50:56.312Z,13
2023-08-08T20:55:58.336Z,13.5
2023-08-08T21:01:46.056Z,13.6
2023-08-08T21:06:56.353Z,13.7
2023-08-08T21:17:46.067Z,14
2023-08-08T21:22:56.364Z,14.1
2023-08-08T21:28:46.040Z,14.1
2023-08-08T21:33:46.086Z,14.2
2023-08-08T21:38:56.117Z,14.3
2023-08-08T21:43:56.288Z,14.1
2023-08-08T21:48:56.329Z,14.2
2023-08-08T21:53:56.324Z,14.3
2023-08-08T21:58:56.376Z,14.3
2023-08-08T22:04:45.879Z,14.3
2023-08-08T22:09:56.143Z,14.4
2023-08-08T22:15:06.436Z,14.5
2023-08-08T22:20:45.832Z,14.5
2023-08-08T22:25:45.850Z,14.4
2023-08-08T22:30:45.894Z,14.5
2023-08-08T22:35:45.878Z,14.5
2023-08-08T22:40:47.998Z,14.5
2023-08-08T22:45:45.938Z,14.4
2023-08-08T22:50:56.144Z,14.4
2023-08-08T22:56:45.820Z,14.4
2023-08-08T23:01:56.154Z,14.4
2023-08-08T23:06:56.126Z,14.4
2023-08-08T23:11:56.160Z,14.4
2023-08-08T23:16:56.484Z,14.4
2023-08-08T23:22:46.245Z,14.4
2023-08-08T23:27:56.221Z,14.5
2023-08-08T23:32:56.356Z,14.5
2023-08-08T23:38:45.869Z,14.4
2023-08-08T23:43:46.081Z,14.4
2023-08-08T23:48:56.152Z,14.4
2023-08-08T23:59:45.848Z,14.5
